Terminal Aerodrome Forecast
Issued by NWS

Home | Current Version | Previous Version | Text Only | Print | Product List | Glossary On
Versions: 1 2 3 4 5 6 7 8 9 10 11 12 13 14 15 16 17 18 19 20 21 22 23 24 25 26 27 28 29 30 31 32 33 34 35 36 37 38
000
FTUS43 KDLH 021100
TAFHIB
TAF
KHIB 021137Z 0212/0312 00000KT 1SM BR SCT002
      TEMPO 0212/0213 1/2SM FG VV001
     FM021330 25004KT P6SM FEW100
     FM021700 26010KT P6SM VCSH SCT040 BKN070
      TEMPO 0219/0222 6SM -SHRA BKN040
     FM030000 VRB02KT P6SM BKN070
     FM030300 00000KT P6SM SCT070
      TEMPO 0308/0312 2SM BR SCT003=

USA.gov is the U.S. government's official web portal to all federal, state and local government web resources and services.